Time;durP1;ratioP1;P1;durP2;ratioP2;P2;SDS_P1;SDS_P2;PMS_P1;PMS_P2;Temp;Humidity;BMP_temperature;BMP_pressure;BME280_temperature;BME280_humidity;BME280_pressure;Samples;Min_cycle;Max_cycle;Signal;HPM_P1;HPM_P2
2022/08/25 00:01:19;;;;;;;2.65;1.60;;;25.00;74.70;;;;;;5029127;28;20030;-59
2022/08/25 00:03:45;;;;;;;3.63;1.70;;;24.90;74.80;;;;;;5028976;28;20036;-59
2022/08/25 00:06:12;;;;;;;2.72;2.05;;;24.90;75.00;;;;;;5028794;28;20378;-58
2022/08/25 00:08:38;;;;;;;1.95;1.65;;;24.90;75.10;;;;;;5020599;28;20509;-58
2022/08/25 00:11:14;;;;;;;2.75;1.90;;;24.80;75.00;;;;;;5028672;28;20035;-59
2022/08/25 00:13:43;;;;;;;2.83;2.17;;;24.80;75.10;;;;;;5028870;28;20075;-59
2022/08/25 00:16:10;;;;;;;2.87;1.80;;;24.80;75.20;;;;;;5025721;28;20772;-59
2022/08/25 00:18:37;;;;;;;2.78;1.52;;;24.70;75.20;;;;;;5027289;28;20370;-59
2022/08/25 00:21:03;;;;;;;2.35;1.80;;;24.70;75.30;;;;;;5028706;28;20485;-59
2022/08/25 00:23:29;;;;;;;2.80;1.90;;;24.70;75.40;;;;;;5028739;28;20112;-59
2022/08/25 00:25:55;;;;;;;2.80;2.03;;;24.70;75.60;;;;;;5028596;28;20128;-58
2022/08/25 00:28:20;;;;;;;2.60;1.90;;;24.60;75.50;;;;;;5028746;28;20037;-59
2022/08/25 00:30:48;;;;;;;3.22;1.98;;;24.60;75.60;;;;;;5028395;28;20112;-58
2022/08/25 00:33:14;;;;;;;3.08;2.08;;;24.60;75.70;;;;;;5028564;28;20359;-59
2022/08/25 00:35:41;;;;;;;2.60;1.95;;;24.50;75.70;;;;;;5028632;28;20470;-59
2022/08/25 00:38:07;;;;;;;2.42;1.95;;;24.50;75.90;;;;;;5028589;28;20072;-59
2022/08/25 00:40:33;;;;;;;2.60;1.88;;;24.50;76.10;;;;;;5028751;28;20033;-58
2022/08/25 00:42:59;;;;;;;2.08;1.83;;;24.40;76.20;;;;;;5028490;28;20028;-58
2022/08/25 00:45:25;;;;;;;2.35;2.15;;;24.40;76.30;;;;;;5028318;28;20038;-58
2022/08/25 00:47:51;;;;;;;5.60;2.20;;;24.30;76.30;;;;;;5028517;28;20029;-59
2022/08/25 00:50:16;;;;;;;2.67;2.05;;;24.30;76.30;;;;;;5028703;28;20099;-59
2022/08/25 00:52:45;;;;;;;3.22;2.35;;;24.30;76.40;;;;;;5029600;28;20099;-58
2022/08/25 00:55:20;;;;;;;2.88;2.17;;;24.30;76.40;;;;;;5026905;28;20097;-58
2022/08/25 00:57:55;;;;;;;3.40;1.98;;;24.30;76.50;;;;;;5028368;28;20025;-58
2022/08/25 01:00:28;;;;;;;3.28;2.35;;;24.20;76.80;;;;;;5028225;28;20104;-58
2022/08/25 01:02:55;;;;;;;2.95;2.25;;;24.20;77.10;;;;;;5028630;28;20038;-58
2022/08/25 01:05:21;;;;;;;3.20;2.55;;;24.10;77.30;;;;;;5028309;28;20464;-58
2022/08/25 01:07:49;;;;;;;2.88;2.40;;;24.10;77.60;;;;;;5028075;28;20026;-58
2022/08/25 01:10:16;;;;;;;2.55;2.25;;;24.00;77.60;;;;;;5028294;28;20028;-58
2022/08/25 01:12:42;;;;;;;2.92;2.35;;;24.00;77.80;;;;;;5028273;28;20111;-58
2022/08/25 01:15:11;;;;;;;2.53;2.10;;;24.00;77.90;;;;;;5028400;28;20553;-58
2022/08/25 01:17:50;;;;;;;4.55;2.72;;;23.90;78.00;;;;;;5028058;28;20106;-58
2022/08/25 01:20:18;;;;;;;3.75;2.50;;;24.00;78.10;;;;;;5026621;28;20439;-58
2022/08/25 01:22:44;;;;;;;4.32;2.80;;;23.90;78.90;;;;;;5028399;28;20025;-58
2022/08/25 01:25:19;;;;;;;3.40;2.67;;;23.90;78.40;;;;;;5028182;28;20021;-58
2022/08/25 01:27:45;;;;;;;3.17;2.60;;;23.80;78.40;;;;;;5028303;28;20040;-58
2022/08/25 01:30:11;;;;;;;2.97;2.65;;;23.80;78.70;;;;;;5020475;28;20038;-58
2022/08/25 01:32:36;;;;;;;5.68;2.83;;;23.70;78.70;;;;;;5031899;28;20029;-58
2022/08/25 01:35:02;;;;;;;3.10;2.58;;;23.70;78.90;;;;;;5031867;28;20030;-59
2022/08/25 01:37:28;;;;;;;3.88;3.15;;;23.70;79.00;;;;;;5029185;28;20384;-58
2022/08/25 01:39:53;;;;;;;2.95;2.65;;;23.60;79.10;;;;;;5031567;28;20529;-59
2022/08/25 01:42:36;;;;;;;3.15;2.85;;;23.70;79.20;;;;;;5031426;28;20657;-58
2022/08/25 01:45:02;;;;;;;5.07;2.65;;;23.60;79.30;;;;;;5030752;28;20025;-58
2022/08/25 01:47:28;;;;;;;5.70;3.13;;;23.50;79.30;;;;;;5030122;28;20037;-58
2022/08/25 01:49:53;;;;;;;4.90;3.45;;;23.50;79.30;;;;;;5031535;28;20029;-58
2022/08/25 01:52:42;;;;;;;4.47;3.10;;;23.50;79.40;;;;;;5031358;28;20477;-58
2022/08/25 01:55:07;;;;;;;4.30;3.47;;;23.50;79.50;;;;;;5022321;28;20038;-58
2022/08/25 01:57:53;;;;;;;3.30;2.78;;;23.40;79.80;;;;;;5031463;28;20271;-58
2022/08/25 02:00:20;;;;;;;5.35;3.15;;;23.40;79.70;;;;;;5030215;28;20103;-59
2022/08/25 02:02:45;;;;;;;3.92;2.58;;;23.30;79.70;;;;;;5031205;28;20493;-58
2022/08/25 02:05:15;;;;;;;4.07;3.20;;;23.30;79.60;;;;;;5031421;28;20028;-58
2022/08/25 02:07:41;;;;;;;;;;;23.30;79.60;;;;;;5031548;28;20024;-58
2022/08/25 02:10:11;;;;;;;3.65;2.75;;;23.20;79.60;;;;;;5030997;28;19913;-58
2022/08/25 02:12:37;;;;;;;3.78;3.35;;;23.10;79.60;;;;;;5031266;28;20018;-58
2022/08/25 02:15:05;;;;;;;3.60;3.30;;;23.10;79.30;;;;;;5029665;28;20035;-59
2022/08/25 02:17:31;;;;;;;4.10;3.23;;;23.10;79.10;;;;;;5028339;28;20485;-59
2022/08/25 02:19:56;;;;;;;3.20;2.80;;;23.10;79.00;;;;;;5031161;28;20029;-58
2022/08/25 02:22:22;;;;;;;4.38;3.40;;;23.00;78.90;;;;;;5031018;28;20048;-58
2022/08/25 02:24:48;;;;;;;3.97;3.05;;;23.00;78.80;;;;;;5029363;28;20028;-59
2022/08/25 02:27:14;;;;;;;3.25;2.95;;;22.90;78.70;;;;;;5030748;28;20030;-58
2022/08/25 02:29:40;;;;;;;3.50;3.15;;;22.90;78.70;;;;;;5030403;28;20056;-58
2022/08/25 02:32:06;;;;;;;4.28;3.22;;;22.90;78.80;;;;;;5030699;28;20138;-58
2022/08/25 02:34:32;;;;;;;4.68;3.08;;;22.90;78.90;;;;;;5030850;28;20482;-58
2022/08/25 02:36:57;;;;;;;3.17;2.88;;;22.80;79.00;;;;;;5030868;28;20099;-59
2022/08/25 02:39:23;;;;;;;3.22;2.92;;;22.80;79.20;;;;;;5030276;28;20074;-58
2022/08/25 02:41:49;;;;;;;4.90;3.10;;;22.80;79.40;;;;;;5030248;28;20029;-58
2022/08/25 02:44:14;;;;;;;3.85;3.03;;;22.70;79.40;;;;;;5030585;28;20457;-58
2022/08/25 02:46:40;;;;;;;3.80;2.97;;;22.70;79.60;;;;;;5030383;28;20028;-58
2022/08/25 02:49:06;;;;;;;3.63;2.70;;;22.60;79.80;;;;;;5030223;28;20021;-58
2022/08/25 02:51:33;;;;;;;4.30;2.78;;;22.60;80.00;;;;;;5030579;28;20643;-58
2022/08/25 02:54:01;;;;;;;3.88;2.78;;;22.60;80.00;;;;;;5030557;28;20025;-58
2022/08/25 02:56:27;;;;;;;3.92;2.70;;;22.60;79.90;;;;;;5030055;28;20017;-58
2022/08/25 02:58:53;;;;;;;3.25;2.53;;;22.60;79.60;;;;;;5028870;28;20033;-58
2022/08/25 03:01:20;;;;;;;3.33;2.65;;;22.60;79.50;;;;;;5029969;28;20485;-58
2022/08/25 03:03:47;;;;;;;3.50;2.60;;;22.60;79.40;;;;;;5030193;28;20029;-58
2022/08/25 03:06:14;;;;;;;4.70;2.63;;;22.60;79.10;;;;;;5030259;28;20056;-59
2022/08/25 03:08:40;;;;;;;2.97;2.25;;;22.60;78.80;;;;;;5021705;28;20029;-58
2022/08/25 03:11:06;;;;;;;3.17;2.35;;;22.60;79.20;;;;;;5029836;28;20022;-58
2022/08/25 03:13:41;;;;;;;3.92;2.75;;;22.60;78.30;;;;;;5030001;28;20028;-58
2022/08/25 03:16:07;;;;;;;2.38;1.92;;;22.60;78.10;;;;;;5025045;28;20034;-58
2022/08/25 03:18:34;;;;;;;2.70;1.98;;;22.50;77.90;;;;;;5029895;28;20025;-59
2022/08/25 03:20:59;;;;;;;3.08;2.13;;;22.50;77.50;;;;;;5030000;28;20029;-58
2022/08/25 03:23:25;;;;;;;3.25;1.73;;;22.50;77.20;;;;;;5029712;28;20040;-58
2022/08/25 03:28:37;;;;;;;2.78;1.70;;;22.60;76.30;;;;;;5029812;28;20466;-58
2022/08/25 03:31:03;;;;;;;2.80;1.73;;;22.60;75.90;;;;;;5028236;28;20026;-58
2022/08/25 03:33:29;;;;;;;5.03;1.63;;;22.60;75.40;;;;;;5029560;28;20152;-59
2022/08/25 03:35:55;;;;;;;4.03;1.83;;;22.60;74.70;;;;;;5020207;28;20087;-58
2022/08/25 03:38:22;;;;;;;2.42;1.38;;;22.60;74.20;;;;;;5029537;28;20021;-58
2022/08/25 03:40:48;;;;;;;5.35;1.60;;;22.60;73.70;;;;;;5029297;28;20493;-58
2022/08/25 03:43:14;;;;;;;2.45;1.50;;;22.60;73.20;;;;;;5028686;28;20504;-58
2022/08/25 03:45:41;;;;;;;2.40;1.30;;;22.60;72.70;;;;;;5029471;28;20060;-59
2022/08/25 03:48:07;;;;;;;3.33;1.67;;;22.60;72.40;;;;;;5019908;28;20033;-58
2022/08/25 03:50:33;;;;;;;4.30;1.65;;;22.50;72.00;;;;;;5028674;28;20024;-59
2022/08/25 03:52:58;;;;;;;2.17;1.50;;;22.60;71.60;;;;;;5029129;28;20034;-58
2022/08/25 03:55:25;;;;;;;1.85;1.27;;;22.60;71.40;;;;;;5029311;28;20071;-58
2022/08/25 03:57:52;;;;;;;2.45;1.38;;;22.50;70.90;;;;;;5029228;28;20076;-58
2022/08/25 04:00:20;;;;;;;2.42;1.60;;;22.50;70.60;;;;;;5029183;28;20085;-58
2022/08/25 04:02:46;;;;;;;2.28;1.70;;;22.50;70.00;;;;;;5028820;28;20067;-58
2022/08/25 04:05:12;;;;;;;4.85;1.40;;;22.50;69.90;;;;;;5029228;28;20045;-58
2022/08/25 04:07:37;;;;;;;2.83;1.65;;;22.50;69.70;;;;;;5028989;28;20022;-58
2022/08/25 04:10:08;;;;;;;3.45;1.30;;;22.50;69.60;;;;;;5029098;28;20025;-58
2022/08/25 04:12:35;;;;;;;2.85;1.30;;;22.50;69.40;;;;;;5027000;28;20025;-58
2022/08/25 04:15:01;;;;;;;2.50;1.50;;;22.50;69.20;;;;;;5029178;28;20108;-58
2022/08/25 04:17:27;;;;;;;2.45;1.30;;;22.50;68.60;;;;;;5027215;28;20021;-58
2022/08/25 04:19:52;;;;;;;2.75;1.42;;;22.40;68.30;;;;;;5028961;28;20040;-58
2022/08/25 04:22:18;;;;;;;3.90;1.38;;;22.40;67.90;;;;;;5028756;28;20086;-58
2022/08/25 04:24:44;;;;;;;3.95;1.48;;;22.40;67.90;;;;;;5029208;28;20025;-58
2022/08/25 04:27:09;;;;;;;2.28;1.50;;;22.40;67.70;;;;;;5028539;28;21328;-58
2022/08/25 04:29:35;;;;;;;3.03;1.52;;;22.40;67.30;;;;;;5028711;28;20092;-59
2022/08/25 04:32:00;;;;;;;3.10;1.80;;;22.40;67.00;;;;;;5024551;28;20028;-58
2022/08/25 04:34:26;;;;;;;2.90;1.45;;;22.40;66.30;;;;;;5027629;28;20603;-59
2022/08/25 04:36:52;;;;;;;2.47;1.58;;;22.40;66.30;;;;;;5027493;28;20061;-58
2022/08/25 04:39:19;;;;;;;3.42;1.83;;;22.40;66.10;;;;;;5027934;28;20085;-58
2022/08/25 04:41:46;;;;;;;2.30;1.60;;;22.40;65.90;;;;;;5027601;28;20111;-58
2022/08/25 04:44:11;;;;;;;3.90;1.40;;;22.40;66.00;;;;;;5027814;28;20022;-58
2022/08/25 04:46:37;;;;;;;4.35;1.55;;;22.40;65.70;;;;;;5028575;28;20339;-58
2022/08/25 04:49:03;;;;;;;3.15;1.40;;;22.40;65.90;;;;;;5028534;28;20558;-58
2022/08/25 04:51:35;;;;;;;2.72;1.42;;;22.40;65.90;;;;;;5024072;28;20424;-58
2022/08/25 04:54:06;;;;;;;1.63;1.15;;;22.40;65.90;;;;;;5028386;28;20029;-58
2022/08/25 04:56:32;;;;;;;2.13;1.20;;;22.50;65.90;;;;;;5026334;28;20024;-58
2022/08/25 04:59:06;;;;;;;2.03;1.00;;;22.50;65.90;;;;;;5028364;28;20034;-58
2022/08/25 05:01:33;;;;;;;3.15;1.45;;;22.50;65.90;;;;;;5028509;28;20074;-58
2022/08/25 05:04:01;;;;;;;1.52;1.23;;;22.50;65.90;;;;;;5032409;28;20044;-58
2022/08/25 05:06:28;;;;;;;2.25;1.30;;;22.50;65.90;;;;;;5026457;28;20025;-59
2022/08/25 05:08:54;;;;;;;3.50;1.17;;;22.50;66.00;;;;;;5032591;28;20037;-58
2022/08/25 05:11:21;;;;;;;2.90;1.10;;;22.40;66.00;;;;;;5032235;28;20030;-58
2022/08/25 05:13:48;;;;;;;2.35;1.20;;;22.50;66.20;;;;;;5032058;28;20156;-59
2022/08/25 05:16:14;;;;;;;3.08;1.23;;;22.50;66.50;;;;;;5032090;28;20057;-58
2022/08/25 05:18:40;;;;;;;2.40;1.05;;;22.50;66.70;;;;;;5032101;28;20871;-58
2022/08/25 05:21:16;;;;;;;2.90;1.30;;;22.50;67.00;;;;;;5032393;28;20083;-58
2022/08/25 05:23:42;;;;;;;2.30;1.25;;;22.40;67.30;;;;;;5031089;28;20029;-58
2022/08/25 05:26:15;;;;;;;1.88;1.17;;;22.50;67.70;;;;;;5034968;28;20584;-59
2022/08/25 05:28:41;;;;;;;4.25;1.30;;;22.50;68.00;;;;;;5035035;28;20049;-58
2022/08/25 05:31:08;;;;;;;3.63;1.42;;;22.50;68.30;;;;;;5035603;28;20033;-59
2022/08/25 05:33:35;;;;;;;1.88;1.00;;;22.50;68.40;;;;;;5035298;28;20111;-58
2022/08/25 05:36:01;;;;;;;4.93;1.40;;;22.40;68.30;;;;;;5035357;28;20029;-58
2022/08/25 05:38:27;;;;;;;1.85;1.10;;;22.50;68.40;;;;;;5036034;28;20346;-58
2022/08/25 05:40:57;;;;;;;3.25;1.38;;;22.50;68.40;;;;;;5035219;28;20100;-58
2022/08/25 05:43:22;;;;;;;2.25;1.15;;;22.50;68.20;;;;;;5035601;28;20044;-58
2022/08/25 05:45:48;;;;;;;4.68;1.20;;;22.60;68.90;;;;;;5035081;28;20088;-58
2022/08/25 05:48:14;;;;;;;1.52;1.17;;;22.60;68.20;;;;;;5030518;28;20025;-59
2022/08/25 05:50:39;;;;;;;2.85;1.20;;;22.60;68.10;;;;;;5033659;28;20075;-58
2022/08/25 05:53:05;;;;;;;3.10;1.70;;;22.60;67.90;;;;;;5034060;28;20039;-58
2022/08/25 05:55:30;;;;;;;2.10;1.30;;;22.70;67.60;;;;;;5032493;28;20017;-59
2022/08/25 05:57:56;;;;;;;3.70;1.42;;;22.70;67.30;;;;;;5034564;28;20037;-58
2022/08/25 06:00:22;;;;;;;3.63;1.45;;;22.70;67.10;;;;;;5035039;28;20026;-58
2022/08/25 06:02:48;;;;;;;4.30;1.10;;;22.70;67.20;;;;;;5034731;28;20029;-58
2022/08/25 06:05:20;;;;;;;1.83;1.20;;;22.80;67.30;;;;;;5035069;28;20029;-58
2022/08/25 06:07:49;;;;;;;2.40;1.60;;;22.80;67.10;;;;;;5034966;28;20126;-58
2022/08/25 06:10:16;;;;;;;3.30;2.08;;;22.80;67.10;;;;;;5035078;28;20504;-59
2022/08/25 06:12:44;;;;;;;3.58;1.70;;;22.90;66.60;;;;;;5034355;28;20072;-58
2022/08/25 06:15:20;;;;;;;3.45;1.98;;;22.90;66.40;;;;;;5033997;28;20028;-58
2022/08/25 06:17:47;;;;;;;1.90;1.33;;;23.00;66.50;;;;;;5034492;28;20025;-58
2022/08/25 06:20:15;;;;;;;4.75;2.40;;;23.00;66.50;;;;;;5034785;28;20045;-58
2022/08/25 06:22:41;;;;;;;2.97;1.83;;;23.00;66.20;;;;;;5031717;28;20074;-58
2022/08/25 06:25:09;;;;;;;3.92;2.00;;;23.10;66.00;;;;;;5034707;28;20033;-58
2022/08/25 06:27:35;;;;;;;3.88;1.83;;;23.10;66.00;;;;;;5034571;28;20026;-58
2022/08/25 06:30:03;;;;;;;4.25;1.90;;;23.20;66.10;;;;;;5033108;28;20045;-58
2022/08/25 06:32:34;;;;;;;3.22;2.20;;;23.30;66.10;;;;;;5033525;28;20373;-58
2022/08/25 06:35:01;;;;;;;4.35;2.40;;;23.30;65.80;;;;;;5029003;28;20050;-58
2022/08/25 06:37:26;;;;;;;4.45;2.08;;;23.40;65.40;;;;;;5032921;28;20021;-58
2022/08/25 06:39:52;;;;;;;2.78;1.88;;;23.40;65.30;;;;;;5032668;28;20040;-58
2022/08/25 06:42:18;;;;;;;3.22;1.73;;;23.40;65.40;;;;;;5032850;28;20070;-58
2022/08/25 06:44:43;;;;;;;4.32;2.08;;;23.50;65.40;;;;;;5033144;28;20048;-58
2022/08/25 06:47:09;;;;;;;3.00;2.30;;;23.50;65.50;;;;;;5032960;28;20102;-58
2022/08/25 06:49:35;;;;;;;4.00;2.20;;;23.60;65.00;;;;;;5032992;28;20029;-58
2022/08/25 06:52:00;;;;;;;3.60;2.00;;;23.70;64.90;;;;;;5032514;28;20076;-58
2022/08/25 06:54:26;;;;;;;4.22;2.25;;;23.70;64.70;;;;;;5032845;28;20035;-58
2022/08/25 06:56:51;;;;;;;4.18;1.92;;;23.80;64.90;;;;;;5031640;28;20024;-58
2022/08/25 06:59:17;;;;;;;4.20;2.13;;;23.80;64.40;;;;;;5030983;28;20481;-58
2022/08/25 07:01:43;;;;;;;6.45;2.45;;;23.90;64.70;;;;;;5032650;28;20526;-58
2022/08/25 07:04:10;;;;;;;3.33;2.40;;;24.00;64.40;;;;;;5032845;28;20076;-58
2022/08/25 07:06:35;;;;;;;3.00;2.03;;;24.00;64.30;;;;;;5032738;28;20075;-58
2022/08/25 07:09:04;;;;;;;3.58;2.20;;;24.10;64.40;;;;;;5033322;28;20489;-58
2022/08/25 07:11:33;;;;;;;4.82;2.50;;;24.20;64.30;;;;;;5030190;28;20026;-59
2022/08/25 07:14:02;;;;;;;5.78;2.40;;;24.20;64.10;;;;;;5033108;28;20033;-58
2022/08/25 07:16:59;;;;;;;4.47;2.53;;;24.30;64.20;;;;;;5033632;28;20060;-58
2022/08/25 07:19:25;;;;;;;5.65;2.55;;;24.30;63.90;;;;;;5034151;28;20104;-58
2022/08/25 07:21:52;;;;;;;5.72;3.00;;;24.40;63.20;;;;;;5031272;28;20113;-58
2022/08/25 07:24:18;;;;;;;8.75;2.75;;;24.50;62.80;;;;;;5030450;28;20025;-58
2022/08/25 07:26:45;;;;;;;8.25;2.90;;;24.50;63.10;;;;;;5031227;28;20018;-58
2022/08/25 07:29:22;;;;;;;3.97;2.60;;;24.50;62.90;;;;;;5031074;28;20045;-58
2022/08/25 07:31:48;;;;;;;4.82;2.42;;;24.60;62.70;;;;;;5031939;28;20021;-59
2022/08/25 07:36:58;;;;;;;6.35;2.85;;;24.70;63.00;;;;;;5028710;28;20572;-58
2022/08/25 07:39:26;;;;;;;7.68;2.72;;;24.70;63.30;;;;;;5032805;28;20104;-58
2022/08/25 07:41:52;;;;;;;3.63;2.38;;;24.80;63.20;;;;;;5032744;28;20056;-58
2022/08/25 07:44:19;;;;;;;2.92;2.13;;;24.90;63.30;;;;;;5033182;28;20461;-58
2022/08/25 07:46:45;;;;;;;3.33;2.35;;;25.00;63.50;;;;;;5032050;28;20505;-58
2022/08/25 07:49:11;;;;;;;4.60;2.75;;;25.00;62.50;;;;;;5032023;28;20022;-58
2022/08/25 07:51:37;;;;;;;3.80;2.30;;;25.10;62.20;;;;;;5031166;28;20469;-58
2022/08/25 07:54:04;;;;;;;5.38;2.63;;;25.10;62.00;;;;;;5030468;28;20543;-58
2022/08/25 07:56:29;;;;;;;9.93;3.22;;;25.20;62.10;;;;;;5031820;28;20021;-58
2022/08/25 07:58:55;;;;;;;8.65;2.90;;;25.30;62.20;;;;;;5031005;28;20563;-59
2022/08/25 08:01:22;;;;;;;6.30;2.58;;;25.40;62.00;;;;;;5030356;28;20028;-59
2022/08/25 08:03:49;;;;;;;4.80;2.80;;;25.50;62.10;;;;;;5031413;28;20075;-58
2022/08/25 08:06:17;;;;;;;5.55;2.40;;;25.50;61.90;;;;;;5030760;28;20049;-58
2022/08/25 08:08:47;;;;;;;4.07;2.10;;;25.60;61.10;;;;;;5029994;28;20021;-58
2022/08/25 08:11:16;;;;;;;4.53;3.10;;;25.70;61.30;;;;;;5031235;28;20021;-58
2022/08/25 08:13:41;;;;;;;4.05;1.90;;;25.80;61.70;;;;;;5031327;28;20053;-58
2022/08/25 08:16:09;;;;;;;6.22;1.92;;;25.90;62.10;;;;;;5030888;28;20099;-58
2022/08/25 08:18:35;;;;;;;5.38;2.30;;;26.00;62.00;;;;;;5032499;28;20515;-58
2022/08/25 08:21:00;;;;;;;6.15;2.45;;;26.10;61.70;;;;;;5023907;28;20103;-59
2022/08/25 08:23:27;;;;;;;3.47;2.35;;;26.20;61.70;;;;;;5032597;28;20473;-58
2022/08/25 08:25:52;;;;;;;4.70;2.33;;;26.30;61.30;;;;;;5028760;28;20044;-58
2022/08/25 08:28:18;;;;;;;5.15;2.72;;;26.30;59.80;;;;;;5027229;28;20049;-58
2022/08/25 08:30:43;;;;;;;4.45;2.78;;;26.40;58.90;;;;;;5018184;28;20021;-59
2022/08/25 08:33:09;;;;;;;6.45;2.90;;;26.50;59.50;;;;;;5032514;28;20394;-58
2022/08/25 08:35:34;;;;;;;7.43;2.50;;;26.60;59.10;;;;;;5032233;28;20032;-58
2022/08/25 08:38:00;;;;;;;3.78;2.67;;;26.70;58.80;;;;;;5031620;28;20092;-58
2022/08/25 08:40:26;;;;;;;2.42;1.67;;;26.80;58.90;;;;;;5031183;28;20039;-58
2022/08/25 08:43:01;;;;;;;3.50;1.70;;;26.90;59.10;;;;;;5031068;28;20112;-59
2022/08/25 08:45:33;;;;;;;3.55;1.98;;;26.90;59.20;;;;;;5031019;28;20033;-58
2022/08/25 08:48:21;;;;;;;4.38;2.13;;;27.00;59.10;;;;;;5031065;28;20029;-58
2022/08/25 08:51:14;;;;;;;3.17;2.17;;;27.10;58.50;;;;;;5030805;28;20028;-58
2022/08/25 08:53:50;;;;;;;4.05;2.47;;;27.20;58.80;;;;;;5029745;28;20024;-59
2022/08/25 08:56:22;;;;;;;4.40;2.15;;;27.20;58.10;;;;;;5029116;28;20022;-58
2022/08/25 08:58:56;;;;;;;6.47;2.40;;;27.30;57.80;;;;;;5030375;28;20024;-59
2022/08/25 09:01:55;;;;;;;6.00;2.40;;;27.40;57.20;;;;;;5030876;28;20028;-59
2022/08/25 09:04:36;;;;;;;5.20;2.40;;;27.50;57.20;;;;;;5030610;28;20021;-59
2022/08/25 09:07:13;;;;;;;2.95;2.35;;;27.60;56.10;;;;;;5030671;28;20116;-59
2022/08/25 09:09:41;;;;;;;5.95;2.67;;;27.70;56.10;;;;;;5030196;28;20076;-59
2022/08/25 09:12:57;;;;;;;4.37;2.30;;;27.80;56.00;;;;;;5030458;28;20078;-59
2022/08/25 09:19:02;;;;;;;2.83;1.90;;;27.90;56.30;;;;;;5030701;28;20084;-59
2022/08/25 09:21:31;;;;;;;3.35;2.10;;;28.10;56.40;;;;;;5030751;28;20025;-58
2022/08/25 09:24:21;;;;;;;3.80;2.30;;;28.10;56.30;;;;;;5031057;28;20029;-58
2022/08/25 09:27:01;;;;;;;2.88;1.73;;;28.30;56.00;;;;;;5030251;28;20033;-59
2022/08/25 09:29:51;;;;;;;3.83;1.95;;;28.40;56.20;;;;;;5030211;28;20041;-58
2022/08/25 09:32:17;;;;;;;6.28;2.15;;;28.50;56.40;;;;;;5029044;28;20093;-59
2022/08/25 09:34:46;;;;;;;2.30;1.92;;;28.60;56.60;;;;;;5030407;28;20014;-59
2022/08/25 09:37:12;;;;;;;3.17;1.80;;;28.70;56.50;;;;;;5026834;28;20057;-59
2022/08/25 09:39:37;;;;;;;3.20;2.05;;;28.80;56.60;;;;;;5029986;28;20056;-59
2022/08/25 09:42:03;;;;;;;5.40;2.13;;;28.90;56.20;;;;;;5029846;28;20017;-59
2022/08/25 09:44:42;;;;;;;5.78;1.77;;;29.00;56.20;;;;;;5030449;28;20461;-58
2022/08/25 09:47:16;;;;;;;6.07;2.20;;;29.10;56.10;;;;;;5030481;28;20029;-59
2022/08/25 09:49:49;;;;;;;4.22;2.00;;;29.20;56.30;;;;;;5027649;28;20029;-59
2022/08/25 09:52:30;;;;;;;3.80;1.75;;;29.30;56.30;;;;;;5034160;28;20028;-59
2022/08/25 09:55:15;;;;;;;4.47;2.00;;;29.40;56.20;;;;;;5032683;28;20029;-58
2022/08/25 09:57:43;;;;;;;3.45;2.10;;;29.40;56.00;;;;;;5033994;28;20017;-58
2022/08/25 10:00:32;;;;;;;4.57;2.08;;;29.60;56.00;;;;;;5033420;28;20060;-59
2022/08/25 10:03:12;;;;;;;4.93;1.80;;;29.70;55.90;;;;;;5033281;28;20036;-59
2022/08/25 10:05:56;;;;;;;2.45;1.77;;;29.80;56.00;;;;;;5033659;28;20540;-59
2022/08/25 10:08:51;;;;;;;3.40;1.85;;;29.90;55.70;;;;;;5033544;28;20028;-59
2022/08/25 10:11:34;;;;;;;2.60;1.73;;;30.10;55.30;;;;;;5033008;28;20499;-59
2022/08/25 10:14:20;;;;;;;2.50;1.90;;;30.20;54.70;;;;;;5033662;28;20075;-59
2022/08/25 10:16:47;;;;;;;3.60;1.80;;;30.30;54.20;;;;;;5026964;28;20029;-59
2022/08/25 10:19:27;;;;;;;4.22;1.98;;;30.40;53.40;;;;;;5033850;28;20020;-59
2022/08/25 10:22:05;;;;;;;5.68;2.25;;;30.50;51.40;;;;;;5034827;28;20033;-59
2022/08/25 10:24:31;;;;;;;2.53;1.75;;;30.60;50.60;;;;;;5032357;28;20029;-59
2022/08/25 10:27:00;;;;;;;2.83;2.17;;;30.70;50.60;;;;;;5032414;28;20029;-59
2022/08/25 10:29:46;;;;;;;6.32;2.05;;;30.80;49.60;;;;;;5032943;28;20049;-59
2022/08/25 10:32:29;;;;;;;5.00;1.45;;;30.90;46.50;;;;;;5033753;28;20044;-59
2022/08/25 10:34:58;;;;;;;2.20;1.50;;;31.00;44.80;;;;;;5034459;28;20092;-59
2022/08/25 10:37:43;;;;;;;3.33;1.45;;;31.10;44.70;;;;;;5033373;28;20030;-58
2022/08/25 10:40:29;;;;;;;5.93;1.70;;;31.20;46.50;;;;;;5034103;28;20563;-59
2022/08/25 10:43:06;;;;;;;2.22;1.50;;;31.40;46.20;;;;;;5028380;28;20469;-59
2022/08/25 10:45:44;;;;;;;3.72;1.73;;;31.40;44.90;;;;;;5031250;28;20112;-59
2022/08/25 10:48:35;;;;;;;3.75;1.70;;;31.60;45.10;;;;;;5033003;28;20072;-59
2022/08/25 10:51:27;;;;;;;2.30;1.55;;;31.70;44.00;;;;;;5031198;28;20030;-59
2022/08/25 10:54:08;;;;;;;3.00;1.50;;;31.80;43.70;;;;;;5032552;28;20025;-59
2022/08/25 10:56:40;;;;;;;2.55;1.60;;;31.90;43.70;;;;;;5030755;28;20013;-59
2022/08/25 10:59:12;;;;;;;3.17;1.40;;;32.10;44.00;;;;;;5032628;28;20049;-59
2022/08/25 11:02:02;;;;;;;1.83;1.23;;;32.50;44.50;;;;;;5032360;28;20037;-59
2022/08/25 11:04:33;;;;;;;3.47;1.60;;;32.80;44.40;;;;;;5031694;28;20503;-59
2022/08/25 11:07:06;;;;;;;2.63;1.45;;;33.20;43.90;;;;;;5030720;28;20108;-59
2022/08/25 11:09:41;;;;;;;1.80;1.08;;;34.60;44.10;;;;;;5032104;28;20021;-59
2022/08/25 11:12:09;;;;;;;1.50;1.00;;;36.50;43.40;;;;;;5033161;28;20025;-59
2022/08/25 11:14:45;;;;;;;1.50;1.00;;;38.00;42.50;;;;;;5033556;28;20021;-59
2022/08/25 11:17:19;;;;;;;2.25;1.50;;;39.30;41.00;;;;;;5033813;28;20256;-59
2022/08/25 11:19:47;;;;;;;4.70;1.42;;;40.20;38.50;;;;;;5033870;28;20490;-59
2022/08/25 11:22:32;;;;;;;1.20;1.10;;;41.20;37.80;;;;;;5033407;28;20041;-60
2022/08/25 11:25:19;;;;;;;1.75;1.20;;;42.00;36.80;;;;;;5033761;28;20104;-59
2022/08/25 11:28:15;;;;;;;2.08;1.23;;;42.40;36.10;;;;;;5033802;28;20022;-60
2022/08/25 11:30:43;;;;;;;1.60;1.40;;;41.70;36.40;;;;;;5033154;28;20079;-60
2022/08/25 11:33:13;;;;;;;1.95;1.27;;;41.10;36.30;;;;;;5033645;28;20028;-60
2022/08/25 11:35:42;;;;;;;2.53;1.70;;;40.80;36.50;;;;;;5032982;28;20032;-60
2022/08/25 11:38:47;;;;;;;1.50;1.10;;;40.80;36.40;;;;;;5031946;28;20096;-60
2022/08/25 11:41:28;;;;;;;1.63;1.23;;;40.80;36.60;;;;;;5025608;28;20115;-60
2022/08/25 11:44:18;;;;;;;2.85;2.00;;;41.70;36.60;;;;;;5032670;28;20025;-59
2022/08/25 11:46:44;;;;;;;1.90;1.42;;;41.80;33.90;;;;;;5033004;28;20082;-60
2022/08/25 11:49:45;;;;;;;1.40;1.30;;;41.40;35.00;;;;;;5033318;28;20123;-60
2022/08/25 11:52:32;;;;;;;3.90;1.55;;;41.80;35.60;;;;;;5022631;28;20124;-60
2022/08/25 11:55:15;;;;;;;3.88;1.52;;;42.10;34.90;;;;;;5032777;28;20026;-60
2022/08/25 11:57:43;;;;;;;2.38;1.40;;;42.30;34.80;;;;;;5032678;28;20030;-60
2022/08/25 12:00:13;;;;;;;;;;;42.40;34.30;;;;;;5032417;28;20053;-60
2022/08/25 12:02:47;;;;;;;1.75;1.30;;;42.40;34.70;;;;;;5032879;28;19959;-60
2022/08/25 12:05:15;;;;;;;1.77;1.30;;;42.60;34.60;;;;;;5032841;28;20025;-60
2022/08/25 12:08:37;;;;;;;1.45;1.23;;;42.70;34.00;;;;;;5032712;28;20025;-60
2022/08/25 12:10:53;;;;;;;2.78;1.40;;;42.80;34.00;;;;;;5032515;28;20037;-60
2022/08/25 12:13:40;;;;;;;2.65;1.30;;;42.20;32.90;;;;;;5032119;28;20428;-60
2022/08/25 12:16:26;;;;;;;2.30;1.70;;;41.80;33.50;;;;;;5032403;28;20014;-60
2022/08/25 12:18:52;;;;;;;2.13;1.63;;;41.10;32.80;;;;;;5032342;28;20048;-60
2022/08/25 12:21:29;;;;;;;1.83;1.70;;;40.40;33.10;;;;;;5033329;28;20453;-59
2022/08/25 12:24:11;;;;;;;2.08;1.45;;;40.00;33.80;;;;;;5032517;28;20444;-60
2022/08/25 12:26:55;;;;;;;2.33;1.10;;;40.20;34.30;;;;;;5031168;28;20036;-60
2022/08/25 12:29:29;;;;;;;2.10;1.60;;;40.50;34.30;;;;;;5018722;28;20072;-60
2022/08/25 12:32:29;;;;;;;1.95;1.67;;;40.10;33.10;;;;;;5030798;28;20414;-60
2022/08/25 12:34:57;;;;;;;1.60;1.40;;;39.80;33.30;;;;;;5032376;28;20040;-60
2022/08/25 12:37:24;;;;;;;1.98;1.75;;;40.00;34.00;;;;;;5032529;28;20103;-60
2022/08/25 12:39:49;;;;;;;1.70;1.60;;;40.00;33.20;;;;;;5032325;28;20044;-60
2022/08/25 12:42:35;;;;;;;1.67;1.58;;;39.70;33.70;;;;;;5032264;28;20029;-60
2022/08/25 12:45:16;;;;;;;2.05;1.30;;;39.90;33.70;;;;;;5031851;28;20022;-60
2022/08/25 12:47:46;;;;;;;2.28;1.40;;;40.00;33.60;;;;;;5032300;28;20026;-60
2022/08/25 12:50:39;;;;;;;3.88;1.60;;;39.80;33.10;;;;;;5032504;28;20091;-60
2022/08/25 12:53:10;;;;;;;2.15;1.95;;;39.20;33.00;;;;;;5031901;28;20465;-60
2022/08/25 12:55:40;;;;;;;1.67;1.40;;;38.90;33.50;;;;;;5032401;28;20040;-60
2022/08/25 12:58:06;;;;;;;3.00;1.52;;;39.10;33.80;;;;;;5030782;28;20463;-60
2022/08/25 13:00:46;;;;;;;3.35;1.55;;;39.00;33.50;;;;;;5032206;28;20125;-60
2022/08/25 13:03:44;;;;;;;2.10;1.25;;;38.60;33.50;;;;;;5030294;28;20021;-60
2022/08/25 13:06:39;;;;;;;2.92;1.48;;;38.90;34.30;;;;;;5031636;28;20387;-60
2022/08/25 13:09:34;;;;;;;1.63;1.30;;;39.40;34.40;;;;;;5031761;28;20026;-60
2022/08/25 13:12:45;;;;;;;1.33;1.10;;;39.60;33.90;;;;;;5032087;28;20037;-60
2022/08/25 13:15:14;;;;;;;1.90;1.63;;;39.90;33.70;;;;;;5020247;28;20044;-61
2022/08/25 13:17:40;;;;;;;2.40;1.10;;;39.60;33.50;;;;;;5031948;28;20550;-60